Beatty, Nevada
Current Conditions -  °F | °C
As of 11:52 AM on Thursday 30 Oct 2014 (Local Time) from KDRA Reporting Station
Clear Clear  
Wind Chill: 26°   Ceiling: Unl
Heat Index: 26°   Visibility: 10mi
Dew Point: -9°   Wind: 12mph
Humidity: 9%   Direction: 130°SE
Pressure: 30.1"   Gusts: NA
Location:  36.91°N, 116.76°W
Report Text: KDRA 301852Z AUTO 13010KT 10SM CLR 26/M09 A3010 RMK AO2 SLP157 T02561094
Loading
Personal Weather Stations






























Interactive Weather Map
Tropical Storm Tracking
New forecast layout! Learn more

10-Day Weather Forecast

Advertisements
Track Severe Weather on mobile